createdAt,value
2022-09-20T00:01:32.202Z,100565.00
2022-09-20T00:04:01.007Z,100557.00
2022-09-20T00:06:29.943Z,100564.00
2022-09-20T00:08:57.371Z,100565.00
2022-09-20T00:11:26.795Z,100562.00
2022-09-20T00:13:54.654Z,100562.00
2022-09-20T00:16:26.941Z,100569.00
2022-09-20T00:18:55.391Z,100563.00
2022-09-20T00:21:24.979Z,100571.00
2022-09-20T00:23:52.435Z,100563.00
2022-09-20T00:26:19.399Z,100571.00
2022-09-20T00:28:47.060Z,100566.00
2022-09-20T00:31:14.715Z,100575.00
2022-09-20T00:33:59.931Z,100566.00
2022-09-20T00:36:27.432Z,100569.00
2022-09-20T00:39:01.913Z,100571.00
2022-09-20T00:41:30.370Z,100576.00
2022-09-20T00:43:57.377Z,100572.00
2022-09-20T00:46:38.622Z,100577.00
2022-09-20T00:49:15.070Z,100571.00
2022-09-20T00:51:45.145Z,100582.00
2022-09-20T00:54:15.881Z,100582.00
2022-09-20T00:56:46.103Z,100581.00
2022-09-20T00:59:17.314Z,100589.00
2022-09-20T01:01:46.515Z,100582.00
2022-09-20T01:04:14.451Z,100578.00
2022-09-20T01:06:43.181Z,100582.00
2022-09-20T01:09:09.788Z,100582.00
2022-09-20T01:11:36.463Z,100589.00
2022-09-20T01:14:03.404Z,100583.00
2022-09-20T01:16:31.150Z,100579.00
2022-09-20T01:18:59.089Z,100582.00
2022-09-20T01:21:26.448Z,100577.00
2022-09-20T01:24:02.970Z,100571.00
2022-09-20T01:26:45.593Z,100572.00
2022-09-20T01:29:33.710Z,100580.00
2022-09-20T01:32:02.747Z,100581.00
2022-09-20T01:34:37.113Z,100587.00
2022-09-20T01:37:05.424Z,100579.00
2022-09-20T01:40:10.873Z,100588.00
2022-09-20T01:42:39.362Z,100580.00
2022-09-20T01:45:27.162Z,100579.00
2022-09-20T01:47:56.663Z,100576.00
2022-09-20T01:50:35.436Z,100580.00
2022-09-20T01:53:23.855Z,100588.00
2022-09-20T01:56:27.549Z,100590.00
2022-09-20T01:59:31.986Z,100591.00
2022-09-20T02:02:16.588Z,100587.00
2022-09-20T02:05:04.553Z,100595.00
2022-09-20T02:08:03.410Z,100593.00
2022-09-20T02:11:14.138Z,100601.00
2022-09-20T02:13:40.546Z,100601.00
2022-09-20T02:16:22.547Z,100602.00
2022-09-20T02:19:21.742Z,100600.00
2022-09-20T02:21:48.158Z,100602.00
2022-09-20T02:24:21.219Z,100594.00
2022-09-20T02:27:02.218Z,100599.00
2022-09-20T02:30:06.472Z,100608.00
2022-09-20T02:33:08.569Z,100602.00
2022-09-20T02:35:53.779Z,100609.00
2022-09-20T02:38:31.063Z,100604.00
2022-09-20T02:41:19.510Z,100614.00
2022-09-20T02:44:01.732Z,100610.00
2022-09-20T02:46:52.560Z,100613.00
2022-09-20T02:49:30.461Z,100617.00
2022-09-20T02:52:00.655Z,100615.00
2022-09-20T02:54:37.852Z,100613.00
2022-09-20T02:57:35.819Z,100613.00
2022-09-20T03:00:14.813Z,100614.00
2022-09-20T03:03:15.311Z,100620.00
2022-09-20T03:05:53.158Z,100619.00
2022-09-20T03:08:33.742Z,100614.00
2022-09-20T03:11:21.442Z,100630.00
2022-09-20T03:14:00.853Z,100624.00
2022-09-20T03:16:53.639Z,100632.00
2022-09-20T03:19:35.747Z,100632.00
2022-09-20T03:22:15.785Z,100626.00
2022-09-20T03:25:01.214Z,100632.00
2022-09-20T03:27:43.717Z,100636.00
2022-09-20T03:30:19.367Z,100640.00
2022-09-20T03:33:11.740Z,100638.00
2022-09-20T03:36:23.107Z,100630.00
2022-09-20T03:39:01.789Z,100634.00
2022-09-20T03:41:53.123Z,100640.00
2022-09-20T03:44:31.884Z,100636.00
2022-09-20T03:47:27.534Z,100644.00
2022-09-20T03:50:24.942Z,100637.00
2022-09-20T03:53:05.201Z,100641.00
2022-09-20T03:55:31.733Z,100642.00
2022-09-20T03:58:08.172Z,100641.00
2022-09-20T04:01:20.203Z,100644.00
2022-09-20T04:04:05.233Z,100646.00
2022-09-20T04:06:44.330Z,100642.00
2022-09-20T04:09:38.072Z,100646.00
2022-09-20T04:12:17.178Z,100649.00
2022-09-20T04:14:49.263Z,100650.00
2022-09-20T04:17:21.965Z,100652.00
2022-09-20T04:20:32.052Z,100648.00
2022-09-20T04:23:03.694Z,100655.00
2022-09-20T04:25:37.069Z,100653.00
2022-09-20T04:28:11.482Z,100654.00
2022-09-20T04:30:43.845Z,100655.00
2022-09-20T04:33:29.983Z,100655.00
2022-09-20T04:36:32.687Z,100656.00
2022-09-20T04:39:12.105Z,100659.00
2022-09-20T04:42:03.983Z,100661.00
2022-09-20T04:44:42.501Z,100661.00
2022-09-20T04:47:42.805Z,100665.00
2022-09-20T04:50:18.021Z,100665.00
2022-09-20T04:52:55.133Z,100661.00
2022-09-20T04:55:46.239Z,100662.00
2022-09-20T04:58:37.634Z,100652.00
2022-09-20T05:01:17.018Z,100667.00
2022-09-20T05:03:58.899Z,100665.00
2022-09-20T05:06:45.217Z,100663.00
2022-09-20T05:09:20.605Z,100670.00
2022-09-20T05:12:15.036Z,100679.00
2022-09-20T05:15:00.205Z,100683.00
2022-09-20T05:17:33.484Z,100680.00
2022-09-20T05:20:10.003Z,100683.00
2022-09-20T05:23:10.111Z,100693.00
2022-09-20T05:25:56.339Z,100696.00
2022-09-20T05:28:25.526Z,100697.00
2022-09-20T05:31:02.510Z,100708.00
2022-09-20T05:33:35.475Z,100711.00
2022-09-20T05:36:35.779Z,100715.00
2022-09-20T05:39:09.791Z,100708.00
2022-09-20T05:41:47.970Z,100716.00
2022-09-20T05:44:31.022Z,100720.00
2022-09-20T05:47:16.295Z,100710.00
2022-09-20T05:50:15.124Z,100726.00
2022-09-20T05:53:18.597Z,100722.00
2022-09-20T05:56:11.224Z,100732.00
2022-09-20T05:58:55.542Z,100727.00
2022-09-20T06:01:42.939Z,100738.00
2022-09-20T06:04:17.560Z,100734.00
2022-09-20T06:07:15.100Z,100739.00
2022-09-20T06:10:04.801Z,100744.00
2022-09-20T06:12:35.617Z,100745.00
2022-09-20T06:15:59.311Z,100745.00
2022-09-20T06:18:31.371Z,100747.00
2022-09-20T06:21:09.829Z,100748.00
2022-09-20T06:23:36.744Z,100754.00
2022-09-20T06:26:07.825Z,100753.00
2022-09-20T06:28:41.880Z,100751.00
2022-09-20T06:31:10.109Z,100749.00
2022-09-20T06:34:07.475Z,100754.00
2022-09-20T06:36:55.491Z,100756.00
2022-09-20T06:39:56.550Z,100755.00
2022-09-20T06:42:26.932Z,100758.00
2022-09-20T06:44:53.733Z,100757.00
2022-09-20T06:47:20.232Z,100755.00
2022-09-20T06:49:47.675Z,100759.00
2022-09-20T06:52:15.780Z,100760.00
2022-09-20T06:54:45.750Z,100760.00
2022-09-20T06:57:15.079Z,100761.00
2022-09-20T06:59:41.541Z,100760.00
2022-09-20T07:02:08.328Z,100768.00
2022-09-20T07:04:35.203Z,100758.00
2022-09-20T07:07:09.451Z,100764.00
2022-09-20T07:09:36.489Z,100771.00
2022-09-20T07:12:03.183Z,100774.00
2022-09-20T07:14:29.748Z,100775.00
2022-09-20T07:16:56.241Z,100778.00
2022-09-20T07:19:23.337Z,100769.00
2022-09-20T07:21:49.891Z,100777.00
2022-09-20T07:24:16.404Z,100781.00
2022-09-20T07:26:58.322Z,100779.00
2022-09-20T07:29:25.657Z,100781.00
2022-09-20T07:31:52.256Z,100784.00
2022-09-20T07:34:20.242Z,100789.00
2022-09-20T07:36:52.902Z,100785.00
2022-09-20T07:39:19.366Z,100784.00
2022-09-20T07:41:48.500Z,100787.00
2022-09-20T07:44:21.569Z,100793.00
2022-09-20T07:46:49.285Z,100799.00
2022-09-20T07:49:15.837Z,100797.00
2022-09-20T07:51:42.574Z,100804.00
2022-09-20T07:54:09.183Z,100805.00
2022-09-20T07:56:36.169Z,100807.00
2022-09-20T07:59:02.649Z,100812.00
2022-09-20T08:01:29.425Z,100818.00
2022-09-20T08:04:14.526Z,100828.00
2022-09-20T08:06:43.427Z,100819.00
2022-09-20T08:09:11.456Z,100818.00
2022-09-20T08:11:39.482Z,100817.00
2022-09-20T08:14:08.820Z,100817.00
2022-09-20T08:16:44.796Z,100822.00
2022-09-20T08:19:22.766Z,100819.00
2022-09-20T08:21:50.740Z,100825.00
2022-09-20T08:24:17.236Z,100825.00
2022-09-20T08:26:44.112Z,100827.00
2022-09-20T08:29:11.580Z,100829.00
2022-09-20T08:31:42.268Z,100831.00
2022-09-20T08:34:10.787Z,100825.00
2022-09-20T08:36:41.223Z,100837.00
2022-09-20T08:42:35.723Z,100833.00
2022-09-20T08:45:07.337Z,100838.00
2022-09-20T08:47:37.047Z,100848.00
2022-09-20T08:50:09.969Z,100849.00
2022-09-20T08:52:40.012Z,100843.00
2022-09-20T08:55:18.820Z,100852.00
2022-09-20T08:57:56.427Z,100838.00
2022-09-20T09:00:25.998Z,100844.00
2022-09-20T09:02:56.095Z,100851.00
2022-09-20T09:05:33.143Z,100848.00
2022-09-20T09:08:04.712Z,100852.00
2022-09-20T09:10:42.545Z,100848.00
2022-09-20T09:13:18.016Z,100847.00
2022-09-20T09:15:47.280Z,100856.00
2022-09-20T09:18:14.512Z,100856.00
2022-09-20T09:20:43.304Z,100852.00
2022-09-20T09:23:25.176Z,100853.00
2022-09-20T09:25:55.497Z,100853.00
2022-09-20T09:28:26.698Z,100851.00
2022-09-20T09:30:54.116Z,100850.00
2022-09-20T09:33:27.931Z,100858.00
2022-09-20T09:35:56.000Z,100853.00
2022-09-20T09:38:24.722Z,100857.00
2022-09-20T09:40:54.588Z,100848.00
2022-09-20T09:43:30.098Z,100865.00
2022-09-20T09:46:17.449Z,100855.00
2022-09-20T09:48:49.701Z,100859.00
2022-09-20T09:51:19.239Z,100855.00
2022-09-20T09:53:47.750Z,100850.00
2022-09-20T09:56:17.973Z,100852.00
2022-09-20T09:58:57.515Z,100859.00
2022-09-20T10:01:33.416Z,100845.00
2022-09-20T10:04:09.163Z,100855.00
2022-09-20T10:06:50.577Z,100851.00
2022-09-20T10:09:29.612Z,100848.00
2022-09-20T10:12:24.625Z,100854.00
2022-09-20T10:15:07.048Z,100847.00
2022-09-20T10:17:45.286Z,100846.00
2022-09-20T10:20:33.616Z,100836.00
2022-09-20T10:23:45.204Z,100845.00
2022-09-20T10:26:31.917Z,100836.00
2022-09-20T10:29:15.630Z,100834.00
2022-09-20T10:32:00.943Z,100843.00
2022-09-20T10:35:06.062Z,100848.00
2022-09-20T10:38:03.417Z,100844.00
2022-09-20T10:41:08.513Z,100849.00
2022-09-20T10:44:08.787Z,100857.00
2022-09-20T10:46:53.694Z,100858.00
2022-09-20T10:49:36.622Z,100860.00
2022-09-20T10:52:14.717Z,100875.00
2022-09-20T10:55:07.756Z,100887.00
2022-09-20T10:57:54.808Z,100896.00
2022-09-20T11:00:22.561Z,100900.00
2022-09-20T11:03:04.540Z,100911.00
2022-09-20T11:05:49.064Z,100907.00
2022-09-20T11:08:18.950Z,100907.00
2022-09-20T11:10:48.235Z,100915.00
2022-09-20T11:13:42.521Z,100910.00
2022-09-20T11:16:19.565Z,100905.00
2022-09-20T11:19:18.766Z,100903.00
2022-09-20T11:21:55.015Z,100916.00
2022-09-20T11:24:35.153Z,100932.00
2022-09-20T11:27:21.747Z,100939.00
2022-09-20T11:30:15.979Z,100947.00
2022-09-20T11:33:03.568Z,100954.00
2022-09-20T11:35:43.348Z,100959.00
2022-09-20T11:38:21.973Z,100961.00
2022-09-20T11:41:25.815Z,100963.00
2022-09-20T11:43:54.210Z,100958.00
2022-09-20T11:46:36.311Z,100963.00
2022-09-20T11:49:03.369Z,100962.00
2022-09-20T11:52:00.327Z,100959.00
2022-09-20T11:54:48.210Z,100963.00
2022-09-20T11:57:24.531Z,100963.00
2022-09-20T12:00:01.623Z,100974.00
2022-09-20T12:02:41.653Z,100964.00
2022-09-20T12:05:37.923Z,100960.00
2022-09-20T12:08:24.922Z,100958.00
2022-09-20T12:11:22.463Z,100957.00
2022-09-20T12:14:06.724Z,100956.00
2022-09-20T12:16:43.966Z,100958.00
2022-09-20T12:19:22.970Z,100961.00
2022-09-20T12:21:58.946Z,100958.00
2022-09-20T12:24:29.247Z,100953.00
2022-09-20T12:26:57.502Z,100953.00
2022-09-20T12:29:24.126Z,100955.00
2022-09-20T12:31:54.868Z,100952.00
2022-09-20T12:34:50.646Z,100952.00
2022-09-20T12:37:19.759Z,100945.00
2022-09-20T12:39:55.530Z,100948.00
2022-09-20T12:42:35.108Z,100945.00
2022-09-20T12:45:07.247Z,100943.00
2022-09-20T12:47:35.577Z,100947.00
2022-09-20T12:50:22.673Z,100947.00
2022-09-20T12:52:57.521Z,100949.00
2022-09-20T12:55:26.981Z,100948.00
2022-09-20T12:58:04.941Z,100949.00
2022-09-20T13:01:04.689Z,100946.00
2022-09-20T13:03:36.846Z,100951.00
2022-09-20T13:06:06.490Z,100944.00
2022-09-20T13:08:41.397Z,100945.00
2022-09-20T13:11:12.085Z,100947.00
2022-09-20T13:13:49.247Z,100937.00
2022-09-20T13:16:24.338Z,100947.00
2022-09-20T13:19:18.703Z,100951.00
2022-09-20T13:21:54.354Z,100958.00
2022-09-20T13:24:21.137Z,100958.00
2022-09-20T13:26:49.152Z,100961.00
2022-09-20T13:29:33.541Z,100949.00
2022-09-20T13:32:35.972Z,100959.00
2022-09-20T13:35:21.507Z,100955.00
2022-09-20T13:37:52.662Z,100953.00
2022-09-20T13:40:25.291Z,100969.00
2022-09-20T13:43:22.265Z,100961.00
2022-09-20T13:45:53.891Z,100964.00
2022-09-20T13:48:25.628Z,100979.00
2022-09-20T13:50:53.731Z,100982.00
2022-09-20T13:53:41.183Z,100978.00
2022-09-20T13:56:29.823Z,100985.00
2022-09-20T13:58:58.973Z,100980.00
2022-09-20T14:01:34.311Z,100979.00
2022-09-20T14:04:19.213Z,100983.00
2022-09-20T14:06:45.922Z,100990.00
2022-09-20T14:09:27.079Z,101001.00
2022-09-20T14:11:54.010Z,100999.00
2022-09-20T14:14:22.341Z,101000.00
2022-09-20T14:16:51.263Z,101011.00
2022-09-20T14:19:20.816Z,101006.00
2022-09-20T14:21:48.022Z,101009.00
2022-09-20T14:24:14.680Z,101016.00
2022-09-20T14:26:42.651Z,101007.00
2022-09-20T14:29:34.244Z,101017.00
2022-09-20T14:32:23.090Z,101010.00
2022-09-20T14:34:55.902Z,101018.00
2022-09-20T14:37:31.530Z,101018.00
2022-09-20T14:40:01.146Z,101017.00
2022-09-20T14:42:34.595Z,101017.00
2022-09-20T14:45:03.439Z,101014.00
2022-09-20T14:47:38.455Z,101016.00
2022-09-20T14:50:22.890Z,101010.00
2022-09-20T14:52:59.859Z,101014.00
2022-09-20T14:55:32.677Z,101011.00
2022-09-20T14:58:09.483Z,101019.00
2022-09-20T15:01:02.030Z,101019.00
2022-09-20T15:03:39.051Z,101006.00
2022-09-20T15:06:07.092Z,101012.00
2022-09-20T15:08:41.714Z,101009.00
2022-09-20T15:11:16.653Z,101016.00
2022-09-20T15:13:43.362Z,101020.00
2022-09-20T15:16:14.979Z,101020.00
2022-09-20T15:18:42.794Z,101018.00
2022-09-20T15:21:11.302Z,101026.00
2022-09-20T15:23:39.239Z,101024.00
2022-09-20T15:26:06.164Z,101028.00
2022-09-20T15:28:34.212Z,101027.00
2022-09-20T15:31:00.727Z,101036.00
2022-09-20T15:33:30.161Z,101038.00
2022-09-20T15:35:56.790Z,101029.00
2022-09-20T15:38:26.686Z,101030.00
2022-09-20T15:40:53.893Z,101032.00
2022-09-20T15:43:26.988Z,101031.00
2022-09-20T15:45:56.031Z,101039.00
2022-09-20T15:48:23.469Z,101042.00
2022-09-20T15:51:05.646Z,101048.00
2022-09-20T15:53:38.287Z,101051.00
2022-09-20T15:56:14.414Z,101045.00
2022-09-20T15:58:48.136Z,101053.00
2022-09-20T16:01:16.674Z,101050.00
2022-09-20T16:03:44.544Z,101048.00
2022-09-20T16:06:11.571Z,101052.00
2022-09-20T16:08:39.773Z,101052.00
2022-09-20T16:11:07.933Z,101044.00
2022-09-20T16:13:40.434Z,101052.00
2022-09-20T16:16:09.101Z,101046.00
2022-09-20T16:18:54.948Z,101048.00
2022-09-20T16:21:21.876Z,101054.00
2022-09-20T16:23:50.365Z,101062.00
2022-09-20T16:26:17.944Z,101070.00
2022-09-20T16:28:47.495Z,101070.00
2022-09-20T16:31:32.774Z,101073.00
2022-09-20T16:34:00.207Z,101073.00
2022-09-20T16:36:27.752Z,101069.00
2022-09-20T16:38:55.934Z,101077.00
2022-09-20T16:41:27.279Z,101078.00
2022-09-20T16:43:54.574Z,101074.00
2022-09-20T16:46:25.395Z,101078.00
2022-09-20T16:48:53.615Z,101084.00
2022-09-20T16:51:25.917Z,101082.00
2022-09-20T16:53:55.715Z,101082.00
2022-09-20T16:56:23.778Z,101085.00
2022-09-20T16:58:53.650Z,101090.00
2022-09-20T17:01:20.525Z,101084.00
2022-09-20T17:03:47.583Z,101085.00
2022-09-20T17:06:16.147Z,101094.00
2022-09-20T17:08:44.690Z,101093.00
2022-09-20T17:11:21.596Z,101103.00
2022-09-20T17:13:51.280Z,101107.00
2022-09-20T17:16:23.033Z,101103.00
2022-09-20T17:18:58.140Z,101108.00
2022-09-20T17:21:25.918Z,101114.00
2022-09-20T17:23:57.413Z,101108.00
2022-09-20T17:26:28.593Z,101124.00
2022-09-20T17:28:56.444Z,101114.00
2022-09-20T17:31:28.614Z,101121.00
2022-09-20T17:33:55.707Z,101122.00
2022-09-20T17:36:22.169Z,101123.00
2022-09-20T17:38:53.842Z,101125.00
2022-09-20T17:41:20.909Z,101134.00
2022-09-20T17:43:48.559Z,101131.00
2022-09-20T17:46:25.806Z,101137.00
2022-09-20T17:48:56.906Z,101148.00
2022-09-20T17:51:25.763Z,101154.00
2022-09-20T17:53:53.186Z,101145.00
2022-09-20T17:56:29.372Z,101146.00
2022-09-20T17:58:56.799Z,101152.00
2022-09-20T18:01:23.870Z,101150.00
2022-09-20T18:03:50.471Z,101155.00
2022-09-20T18:06:25.175Z,101149.00
2022-09-20T18:08:53.639Z,101162.00
2022-09-20T18:11:22.595Z,101152.00
2022-09-20T18:13:49.036Z,101165.00
2022-09-20T18:16:17.291Z,101154.00
2022-09-20T18:19:03.071Z,101161.00
2022-09-20T18:21:36.969Z,101163.00
2022-09-20T18:24:08.688Z,101172.00
2022-09-20T18:26:35.922Z,101168.00
2022-09-20T18:29:06.759Z,101165.00
2022-09-20T18:31:43.137Z,101174.00
2022-09-20T18:34:23.546Z,101180.00
2022-09-20T18:36:52.554Z,101182.00
2022-09-20T18:39:26.292Z,101180.00
2022-09-20T18:41:53.411Z,101191.00
2022-09-20T18:44:21.507Z,101188.00
2022-09-20T18:46:48.675Z,101185.00
2022-09-20T18:49:16.686Z,101175.00
2022-09-20T18:51:44.161Z,101189.00
2022-09-20T18:54:13.153Z,101192.00
2022-09-20T18:56:44.283Z,101181.00
2022-09-20T18:59:25.180Z,101198.00
2022-09-20T19:01:54.988Z,101198.00
2022-09-20T19:04:56.917Z,101200.00
2022-09-20T19:07:29.514Z,101197.00
2022-09-20T19:10:20.279Z,101198.00
2022-09-20T19:13:05.024Z,101207.00
2022-09-20T19:15:47.131Z,101205.00
2022-09-20T19:18:40.528Z,101207.00
2022-09-20T19:21:26.786Z,101196.00
2022-09-20T19:24:14.553Z,101211.00
2022-09-20T19:26:42.144Z,101223.00
2022-09-20T19:29:26.799Z,101202.00
2022-09-20T19:31:56.153Z,101219.00
2022-09-20T19:34:25.720Z,101223.00
2022-09-20T19:37:04.292Z,101224.00
2022-09-20T19:39:40.131Z,101226.00
2022-09-20T19:42:19.948Z,101227.00
2022-09-20T19:44:58.343Z,101231.00
2022-09-20T19:47:45.678Z,101215.00
2022-09-20T19:50:27.910Z,101235.00
2022-09-20T19:52:57.792Z,101229.00
2022-09-20T19:55:24.788Z,101233.00
2022-09-20T19:57:51.650Z,101237.00
2022-09-20T20:00:20.581Z,101242.00
2022-09-20T20:02:47.963Z,101243.00
2022-09-20T20:05:20.056Z,101245.00
2022-09-20T20:07:47.592Z,101245.00
2022-09-20T20:10:26.066Z,101251.00
2022-09-20T20:12:59.261Z,101252.00
2022-09-20T20:15:50.977Z,101252.00
2022-09-20T20:18:20.741Z,101249.00
2022-09-20T20:20:49.249Z,101257.00
2022-09-20T20:23:43.951Z,101267.00
2022-09-20T20:26:24.246Z,101263.00
2022-09-20T20:28:51.979Z,101265.00
2022-09-20T20:31:21.884Z,101268.00
2022-09-20T20:33:48.951Z,101266.00
2022-09-20T20:36:16.557Z,101260.00
2022-09-20T20:38:49.296Z,101268.00
2022-09-20T20:41:18.386Z,101264.00
2022-09-20T20:43:48.304Z,101270.00
2022-09-20T20:46:17.625Z,101273.00
2022-09-20T20:48:44.590Z,101283.00
2022-09-20T20:51:18.993Z,101280.00
2022-09-20T20:53:48.476Z,101281.00
2022-09-20T20:56:15.793Z,101281.00
2022-09-20T20:58:43.410Z,101278.00
2022-09-20T21:01:15.595Z,101276.00
2022-09-20T21:03:46.295Z,101284.00
2022-09-20T21:06:13.173Z,101285.00
2022-09-20T21:08:42.353Z,101281.00
2022-09-20T21:11:12.917Z,101293.00
2022-09-20T21:13:40.266Z,101285.00
2022-09-20T21:16:15.538Z,101292.00
2022-09-20T21:18:43.211Z,101291.00
2022-09-20T21:21:26.656Z,101281.00
2022-09-20T21:23:56.053Z,101292.00
2022-09-20T21:26:23.003Z,101288.00
2022-09-20T21:28:54.355Z,101287.00
2022-09-20T21:31:22.374Z,101291.00
2022-09-20T21:33:49.366Z,101292.00
2022-09-20T21:36:17.710Z,101299.00
2022-09-20T21:38:45.337Z,101301.00
2022-09-20T21:41:17.770Z,101298.00
2022-09-20T21:43:45.800Z,101310.00
2022-09-20T21:46:20.252Z,101307.00
2022-09-20T21:48:47.855Z,101316.00
2022-09-20T21:51:16.111Z,101313.00
2022-09-20T21:53:42.650Z,101316.00
2022-09-20T21:56:11.662Z,101322.00
2022-09-20T21:58:41.563Z,101322.00
2022-09-20T22:01:11.701Z,101330.00
2022-09-20T22:03:46.728Z,101330.00
2022-09-20T22:06:18.059Z,101322.00
2022-09-20T22:08:58.200Z,101323.00
2022-09-20T22:11:27.090Z,101312.00
2022-09-20T22:13:55.063Z,101320.00
2022-09-20T22:16:22.941Z,101329.00
2022-09-20T22:18:49.789Z,101330.00
2022-09-20T22:21:23.476Z,101337.00
2022-09-20T22:23:57.274Z,101331.00
2022-09-20T22:26:26.202Z,101304.00
2022-09-20T22:28:52.824Z,101332.00
2022-09-20T22:31:21.897Z,101331.00
2022-09-20T22:33:50.985Z,101334.00
2022-09-20T22:36:23.009Z,101338.00
2022-09-20T22:38:49.737Z,101324.00
2022-09-20T22:41:17.998Z,101343.00
2022-09-20T22:43:44.956Z,101346.00
2022-09-20T22:46:16.455Z,101340.00
2022-09-20T22:48:42.897Z,101339.00
2022-09-20T22:51:15.000Z,101339.00
2022-09-20T22:53:41.844Z,101343.00
2022-09-20T22:56:17.092Z,101339.00
2022-09-20T22:58:45.711Z,101336.00
2022-09-20T23:01:14.043Z,101333.00
2022-09-20T23:03:45.478Z,101334.00
2022-09-20T23:06:20.931Z,101333.00
2022-09-20T23:08:52.414Z,101333.00
2022-09-20T23:11:19.427Z,101332.00
2022-09-20T23:13:46.557Z,101333.00
2022-09-20T23:16:24.830Z,101335.00
2022-09-20T23:18:52.681Z,101337.00
2022-09-20T23:21:19.283Z,101337.00
2022-09-20T23:23:47.539Z,101344.00
2022-09-20T23:26:17.121Z,101345.00
2022-09-20T23:28:44.477Z,101336.00
2022-09-20T23:31:16.145Z,101343.00
2022-09-20T23:33:50.168Z,101339.00
2022-09-20T23:36:17.333Z,101342.00
2022-09-20T23:38:44.427Z,101350.00
2022-09-20T23:41:12.959Z,101348.00
2022-09-20T23:43:40.681Z,101352.00
2022-09-20T23:46:08.124Z,101347.00
2022-09-20T23:48:38.048Z,101345.00
2022-09-20T23:51:05.934Z,101347.00
2022-09-20T23:53:32.682Z,101342.00
2022-09-20T23:55:59.126Z,101349.00
2022-09-20T23:58:25.725Z,101352.00
